createdAt,value
2022-11-28T00:01:28.991Z,29.15
2022-11-28T00:06:22.226Z,29.27
2022-11-28T00:08:51.885Z,28.30
2022-11-28T00:11:19.147Z,28.23
2022-11-28T00:13:46.968Z,26.75
2022-11-28T00:16:17.415Z,28.33
2022-11-28T00:18:44.552Z,29.60
2022-11-28T00:21:13.892Z,28.38
2022-11-28T00:23:42.474Z,32.15
2022-11-28T00:26:22.636Z,30.23
2022-11-28T00:28:49.987Z,31.42
2022-11-28T00:31:22.567Z,30.25
2022-11-28T00:33:49.594Z,29.08
2022-11-28T00:36:16.543Z,30.45
2022-11-28T00:38:43.425Z,29.73
2022-11-28T00:41:14.053Z,27.50
2022-11-28T00:43:41.682Z,24.25
2022-11-28T00:46:08.987Z,30.45
2022-11-28T00:48:36.372Z,30.35
2022-11-28T00:51:12.321Z,31.42
2022-11-28T00:53:43.254Z,33.85
2022-11-28T00:56:15.431Z,29.42
2022-11-28T00:58:43.361Z,28.60
2022-11-28T01:01:14.620Z,30.63
2022-11-28T01:03:42.004Z,31.90
2022-11-28T01:06:10.059Z,33.92
2022-11-28T01:08:39.720Z,30.05
2022-11-28T01:11:12.804Z,31.38
2022-11-28T01:13:40.352Z,30.98
2022-11-28T01:16:08.602Z,30.67
2022-11-28T01:18:35.804Z,32.30
2022-11-28T01:21:02.451Z,28.60
2022-11-28T01:23:29.117Z,29.48
2022-11-28T01:25:55.720Z,32.50
2022-11-28T01:28:22.411Z,32.28
2022-11-28T01:30:49.155Z,29.85
2022-11-28T01:33:15.779Z,28.27
2022-11-28T01:35:42.337Z,27.85
2022-11-28T01:38:09.315Z,29.10
2022-11-28T01:40:35.893Z,27.33
2022-11-28T01:43:02.549Z,26.25
2022-11-28T01:45:32.240Z,27.83
2022-11-28T01:48:03.206Z,28.95
2022-11-28T01:50:33.198Z,28.85
2022-11-28T01:53:04.558Z,28.10
2022-11-28T01:55:35.444Z,29.17
2022-11-28T01:58:02.285Z,27.42
2022-11-28T02:00:29.021Z,26.33
2022-11-28T02:03:11.701Z,28.33
2022-11-28T02:05:39.267Z,28.73
2022-11-28T02:08:06.318Z,27.75
2022-11-28T02:10:55.651Z,26.77
2022-11-28T02:13:47.223Z,27.33
2022-11-28T02:16:17.037Z,24.90
2022-11-28T02:19:09.387Z,24.70
2022-11-28T02:21:45.795Z,24.27
2022-11-28T02:24:46.442Z,21.42
2022-11-28T02:27:50.430Z,24.45
2022-11-28T02:30:29.318Z,24.58
2022-11-28T02:33:17.088Z,22.88
2022-11-28T02:35:46.705Z,24.27
2022-11-28T02:38:26.333Z,24.95
2022-11-28T02:41:14.393Z,23.15
2022-11-28T02:44:04.599Z,23.88
2022-11-28T02:46:43.250Z,24.48
2022-11-28T02:49:38.038Z,22.65
2022-11-28T02:52:15.488Z,18.50
2022-11-28T02:54:44.408Z,21.83
2022-11-28T02:57:11.406Z,21.55
2022-11-28T02:59:38.021Z,21.30
2022-11-28T03:02:13.330Z,21.50
2022-11-28T03:04:43.110Z,22.08
2022-11-28T03:07:46.864Z,22.48
2022-11-28T03:10:31.793Z,20.38
2022-11-28T03:16:07.470Z,20.90
2022-11-28T03:18:42.166Z,21.15
2022-11-28T03:21:11.640Z,22.45
2022-11-28T03:23:50.711Z,22.02
2022-11-28T03:26:29.227Z,19.90
2022-11-28T03:29:08.520Z,22.67
2022-11-28T03:31:50.976Z,21.88
2022-11-28T03:34:21.625Z,26.92
2022-11-28T03:36:57.691Z,24.05
2022-11-28T03:39:32.006Z,26.90
2022-11-28T03:42:08.005Z,25.50
2022-11-28T03:44:49.693Z,27.02
2022-11-28T03:47:16.541Z,27.38
2022-11-28T03:49:50.397Z,26.90
2022-11-28T03:52:45.344Z,27.13
2022-11-28T03:55:22.754Z,30.15
2022-11-28T03:57:54.800Z,27.17
2022-11-28T04:00:22.389Z,26.13
2022-11-28T04:02:49.182Z,25.48
2022-11-28T04:05:35.700Z,27.13
2022-11-28T04:08:14.227Z,25.90
2022-11-28T04:10:51.673Z,27.08
2022-11-28T04:13:30.627Z,23.25
2022-11-28T04:16:09.534Z,25.38
2022-11-28T04:19:08.769Z,23.38
2022-11-28T04:21:44.493Z,25.35
2022-11-28T04:24:16.153Z,25.20
2022-11-28T04:26:50.599Z,27.15
2022-11-28T04:31:46.515Z,25.65
2022-11-28T04:34:17.420Z,25.65
2022-11-28T04:36:46.453Z,24.73
2022-11-28T04:39:21.291Z,30.10
2022-11-28T04:42:11.664Z,28.10
2022-11-28T04:44:51.536Z,25.50
2022-11-28T04:47:27.524Z,25.52
2022-11-28T04:49:54.912Z,25.10
2022-11-28T04:52:36.647Z,24.60
2022-11-28T04:55:40.704Z,26.67
2022-11-28T04:58:19.299Z,26.55
2022-11-28T05:00:48.501Z,26.05
2022-11-28T05:03:15.298Z,21.50
2022-11-28T05:05:48.630Z,28.02
2022-11-28T05:08:15.555Z,25.58
2022-11-28T05:10:53.322Z,26.63
2022-11-28T05:13:19.955Z,24.85
2022-11-28T05:15:46.595Z,23.42
2022-11-28T05:18:13.310Z,20.25
2022-11-28T05:20:40.425Z,25.40
2022-11-28T05:23:07.266Z,21.38
2022-11-28T05:25:34.023Z,22.83
2022-11-28T05:28:00.659Z,24.08
2022-11-28T05:30:27.281Z,24.85
2022-11-28T05:32:53.911Z,28.38
2022-11-28T05:35:20.575Z,23.77
2022-11-28T05:37:47.245Z,24.10
2022-11-28T05:40:14.014Z,20.60
2022-11-28T05:42:40.601Z,24.95
2022-11-28T05:45:07.829Z,28.98
2022-11-28T05:47:34.544Z,24.73
2022-11-28T05:50:01.307Z,24.65
2022-11-28T05:52:29.817Z,27.52
2022-11-28T05:54:58.398Z,27.15
2022-11-28T05:57:25.112Z,27.30
2022-11-28T05:59:51.786Z,23.13
2022-11-28T06:02:18.506Z,23.75
2022-11-28T06:04:45.173Z,27.75
2022-11-28T06:07:11.953Z,22.77
2022-11-28T06:09:38.647Z,21.55
2022-11-28T06:12:05.600Z,24.70
2022-11-28T06:14:32.884Z,24.92
2022-11-28T06:16:59.600Z,22.98
2022-11-28T06:19:26.274Z,23.02
2022-11-28T06:21:52.942Z,22.25
2022-11-28T06:24:19.595Z,24.27
2022-11-28T06:26:46.643Z,24.48
2022-11-28T06:29:13.281Z,28.77
2022-11-28T06:31:39.924Z,26.35
2022-11-28T06:34:07.059Z,29.30
2022-11-28T06:36:35.167Z,27.45
2022-11-28T06:39:01.841Z,31.52
2022-11-28T06:41:28.486Z,27.40
2022-11-28T06:43:56.861Z,26.40
2022-11-28T06:46:23.924Z,27.38
2022-11-28T06:48:52.337Z,24.83
2022-11-28T06:51:20.372Z,25.77
2022-11-28T06:53:47.503Z,22.50
2022-11-28T06:56:18.012Z,32.00
2022-11-28T06:58:45.794Z,24.23
2022-11-28T07:01:15.902Z,20.80
2022-11-28T07:03:43.789Z,22.80
2022-11-28T07:06:11.422Z,22.52
2022-11-28T07:08:38.733Z,25.85
2022-11-28T07:11:13.032Z,22.52
2022-11-28T07:13:40.450Z,30.08
2022-11-28T07:16:08.518Z,28.02
2022-11-28T07:18:35.646Z,24.42
2022-11-28T07:21:02.454Z,22.23
2022-11-28T07:23:29.256Z,20.30
2022-11-28T07:26:00.461Z,23.60
2022-11-28T07:28:28.825Z,22.17
2022-11-28T07:31:07.909Z,22.13
2022-11-28T07:33:35.200Z,21.50
2022-11-28T07:36:07.303Z,20.92
2022-11-28T07:38:34.421Z,24.67
2022-11-28T07:41:13.003Z,18.98
2022-11-28T07:43:44.528Z,24.00
2022-11-28T07:46:14.812Z,26.67
2022-11-28T07:48:41.744Z,23.83
2022-11-28T07:51:11.518Z,23.05
2022-11-28T07:53:38.674Z,23.98
2022-11-28T07:56:08.834Z,19.92
2022-11-28T07:58:36.663Z,19.17
2022-11-28T08:01:16.641Z,20.33
2022-11-28T08:03:46.957Z,20.60
2022-11-28T08:06:19.038Z,18.35
2022-11-28T08:08:47.336Z,22.80
2022-11-28T08:11:15.332Z,17.88
2022-11-28T08:13:42.335Z,21.30
2022-11-28T08:16:20.990Z,24.25
2022-11-28T08:18:48.836Z,20.63
2022-11-28T08:21:25.754Z,19.60
2022-11-28T08:23:54.442Z,20.90
2022-11-28T08:26:28.812Z,21.50
2022-11-28T08:28:57.291Z,24.15
2022-11-28T08:31:26.518Z,22.13
2022-11-28T08:33:55.359Z,22.05
2022-11-28T08:36:22.793Z,21.08
2022-11-28T08:39:03.445Z,22.13
2022-11-28T08:41:36.394Z,22.08
2022-11-28T08:44:03.065Z,21.30
2022-11-28T08:46:29.867Z,20.05
2022-11-28T08:48:56.525Z,22.70
2022-11-28T08:51:24.118Z,19.90
2022-11-28T08:53:54.873Z,32.40
2022-11-28T08:56:24.813Z,20.20
2022-11-28T08:58:51.484Z,23.00
2022-11-28T09:01:23.749Z,21.10
2022-11-28T09:03:50.865Z,20.13
2022-11-28T09:06:18.441Z,19.23
2022-11-28T09:08:46.030Z,21.08
2022-11-28T09:11:15.148Z,20.05
2022-11-28T09:13:41.836Z,23.77
2022-11-28T09:16:09.631Z,21.40
2022-11-28T09:18:36.710Z,21.73
2022-11-28T09:21:09.498Z,20.95
2022-11-28T09:23:37.587Z,21.60
2022-11-28T09:26:16.570Z,29.20
2022-11-28T09:28:43.641Z,22.08
2022-11-28T09:31:12.501Z,27.20
2022-11-28T09:33:39.216Z,26.60
2022-11-28T09:36:08.264Z,25.88
2022-11-28T09:38:35.168Z,26.08
2022-11-28T09:41:02.892Z,23.42
2022-11-28T09:43:29.491Z,27.77
2022-11-28T09:45:57.861Z,27.23
2022-11-28T09:48:36.733Z,19.48
2022-11-28T09:51:14.510Z,20.92
2022-11-28T09:54:05.675Z,20.48
2022-11-28T09:56:32.769Z,23.38
2022-11-28T09:59:03.481Z,26.27
2022-11-28T10:01:30.031Z,26.70
2022-11-28T10:04:04.041Z,30.10
2022-11-28T10:06:47.768Z,22.52
2022-11-28T10:09:34.784Z,18.88
2022-11-28T10:12:50.862Z,19.75
2022-11-28T10:15:30.547Z,18.48
2022-11-28T10:18:12.370Z,19.00
2022-11-28T10:20:45.846Z,17.88
2022-11-28T10:23:27.888Z,18.00
2022-11-28T10:25:59.611Z,18.00
2022-11-28T10:28:34.030Z,20.88
2022-11-28T10:34:09.792Z,18.38
2022-11-28T10:36:55.670Z,21.20
2022-11-28T10:39:22.347Z,20.05
2022-11-28T10:42:12.036Z,21.13
2022-11-28T10:44:58.840Z,19.92
2022-11-28T10:47:39.259Z,20.13
2022-11-28T10:50:17.785Z,18.33
2022-11-28T10:53:08.845Z,20.27
2022-11-28T10:55:50.950Z,23.95
2022-11-28T10:58:30.142Z,23.85
2022-11-28T11:00:58.362Z,20.95
2022-11-28T11:03:32.794Z,19.65
2022-11-28T11:06:00.638Z,20.20
2022-11-28T11:08:29.724Z,22.17
2022-11-28T11:11:28.702Z,16.88
2022-11-28T11:14:06.162Z,21.05
2022-11-28T11:16:55.272Z,18.65
2022-11-28T11:19:27.229Z,17.55
2022-11-28T11:22:21.620Z,24.48
2022-11-28T11:25:13.142Z,19.35
2022-11-28T11:27:49.194Z,18.60
2022-11-28T11:30:27.123Z,18.38
2022-11-28T11:32:55.974Z,16.98
2022-11-28T11:35:37.009Z,18.75
2022-11-28T11:38:32.345Z,18.60
2022-11-28T11:41:29.926Z,17.05
2022-11-28T11:44:17.492Z,14.98
2022-11-28T11:47:09.200Z,16.38
2022-11-28T11:49:49.671Z,16.58
2022-11-28T11:52:25.659Z,18.95
2022-11-28T11:54:58.404Z,17.90
2022-11-28T11:57:39.402Z,17.48
2022-11-28T12:00:28.882Z,16.40
2022-11-28T12:03:00.844Z,17.02
2022-11-28T12:05:46.338Z,15.75
2022-11-28T12:08:40.057Z,17.88
2022-11-28T12:11:19.758Z,15.68
2022-11-28T12:13:46.729Z,16.58
2022-11-28T12:16:25.821Z,15.63
2022-11-28T12:19:27.945Z,13.45
2022-11-28T12:22:12.277Z,15.85
2022-11-28T12:24:56.217Z,19.80
2022-11-28T12:28:02.498Z,17.77
2022-11-28T12:30:52.686Z,13.65
2022-11-28T12:33:19.303Z,18.52
2022-11-28T12:36:00.301Z,16.40
2022-11-28T12:38:31.533Z,13.70
2022-11-28T12:41:14.161Z,14.77
2022-11-28T12:43:42.812Z,9.55
2022-11-28T12:46:39.031Z,10.93
2022-11-28T12:49:17.689Z,10.15
2022-11-28T12:52:05.278Z,9.32
2022-11-28T12:54:59.585Z,9.77
2022-11-28T12:57:52.157Z,8.00
2022-11-28T13:00:22.723Z,6.72
2022-11-28T13:02:56.493Z,9.13
2022-11-28T13:06:16.729Z,8.00
2022-11-28T13:08:53.630Z,8.77
2022-11-28T13:11:32.285Z,8.80
2022-11-28T13:14:11.828Z,8.25
2022-11-28T13:16:42.473Z,9.23
2022-11-28T13:19:31.889Z,8.75
2022-11-28T13:22:23.592Z,7.10
2022-11-28T13:25:13.414Z,13.15
2022-11-28T13:28:21.187Z,11.65
2022-11-28T13:33:58.795Z,7.40
2022-11-28T13:39:30.071Z,10.02
2022-11-28T13:45:43.900Z,6.85
2022-11-28T13:48:57.563Z,5.78
2022-11-28T13:51:33.422Z,7.03
2022-11-28T13:54:32.856Z,10.75
2022-11-28T13:57:18.946Z,11.23
2022-11-28T14:00:23.131Z,19.48
2022-11-28T14:02:59.941Z,18.30
2022-11-28T14:05:41.645Z,23.05
2022-11-28T14:08:09.346Z,20.35
2022-11-28T14:11:01.687Z,24.40
2022-11-28T14:13:44.852Z,20.75
2022-11-28T14:16:25.537Z,19.33
2022-11-28T14:19:11.624Z,16.42
2022-11-28T14:21:59.370Z,14.30
2022-11-28T14:25:04.443Z,12.75
2022-11-28T14:27:38.464Z,12.43
2022-11-28T14:30:06.310Z,10.27
2022-11-28T14:32:40.453Z,9.95
2022-11-28T14:35:17.444Z,12.57
2022-11-28T14:37:55.618Z,9.38
2022-11-28T14:40:56.894Z,12.32
2022-11-28T14:43:23.523Z,7.80
2022-11-28T14:45:52.146Z,8.85
2022-11-28T14:48:29.292Z,9.65
2022-11-28T14:51:01.334Z,6.57
2022-11-28T14:53:45.402Z,7.82
2022-11-28T14:56:15.074Z,8.20
2022-11-28T14:58:50.167Z,12.18
2022-11-28T15:01:41.851Z,12.57
2022-11-28T15:04:32.548Z,9.90
2022-11-28T15:07:01.559Z,13.80
2022-11-28T15:09:31.037Z,13.60
2022-11-28T15:12:11.620Z,12.98
2022-11-28T15:14:38.946Z,14.77
2022-11-28T15:17:11.077Z,12.88
2022-11-28T15:19:44.963Z,11.77
2022-11-28T15:22:38.990Z,24.33
2022-11-28T15:25:21.273Z,29.40
2022-11-28T15:27:47.935Z,17.90
2022-11-28T15:30:17.981Z,14.80
2022-11-28T15:32:44.938Z,11.38
2022-11-28T15:35:23.925Z,9.50
2022-11-28T15:37:54.602Z,11.25
2022-11-28T15:40:26.628Z,13.27
2022-11-28T15:42:53.522Z,12.40
2022-11-28T15:45:32.271Z,17.10
2022-11-28T15:47:58.905Z,23.13
2022-11-28T15:50:29.100Z,27.42
2022-11-28T15:53:03.277Z,33.50
2022-11-28T15:55:32.456Z,35.95
2022-11-28T15:58:17.845Z,25.27
2022-11-28T16:00:52.430Z,27.95
2022-11-28T16:03:24.055Z,21.70
2022-11-28T16:05:55.944Z,19.20
2022-11-28T16:08:28.900Z,32.60
2022-11-28T16:10:56.881Z,31.65
2022-11-28T16:13:24.995Z,30.17
2022-11-28T16:15:56.144Z,29.27
2022-11-28T16:18:23.841Z,27.40
2022-11-28T16:20:52.963Z,26.65
2022-11-28T16:23:27.586Z,25.67
2022-11-28T16:26:22.389Z,24.10
2022-11-28T16:29:07.122Z,21.17
2022-11-28T16:34:02.195Z,23.80
2022-11-28T16:36:31.982Z,24.55
2022-11-28T16:39:15.913Z,31.42
2022-11-28T16:42:13.955Z,25.83
2022-11-28T16:44:40.900Z,24.95
2022-11-28T16:47:29.263Z,26.05
2022-11-28T16:50:17.821Z,26.85
2022-11-28T16:52:58.484Z,31.75
2022-11-28T16:55:32.253Z,26.52
2022-11-28T16:58:10.852Z,24.80
2022-11-28T17:00:40.662Z,26.15
2022-11-28T17:03:12.933Z,27.40
2022-11-28T17:05:39.756Z,27.20
2022-11-28T17:08:30.555Z,28.00
2022-11-28T17:10:57.304Z,32.45
2022-11-28T17:13:23.963Z,41.42
2022-11-28T17:15:50.593Z,30.60
2022-11-28T17:18:17.188Z,33.97
2022-11-28T17:20:43.890Z,43.20
2022-11-28T17:23:15.185Z,46.95
2022-11-28T17:25:41.760Z,40.75
2022-11-28T17:28:09.246Z,41.88
2022-11-28T17:30:35.930Z,39.72
2022-11-28T17:33:05.108Z,35.70
2022-11-28T17:35:36.552Z,31.00
2022-11-28T17:38:03.267Z,23.98
2022-11-28T17:40:36.873Z,29.55
2022-11-28T17:43:03.816Z,21.02
2022-11-28T17:45:34.023Z,23.88
2022-11-28T17:48:03.982Z,24.73
2022-11-28T17:50:30.766Z,29.52
2022-11-28T17:52:57.425Z,27.15
2022-11-28T17:55:24.335Z,28.38
2022-11-28T17:57:51.053Z,29.05
2022-11-28T18:00:18.053Z,31.48
2022-11-28T18:02:54.877Z,32.88
2022-11-28T18:05:21.445Z,32.55
2022-11-28T18:07:48.174Z,33.67
2022-11-28T18:10:18.097Z,31.00
2022-11-28T18:12:44.867Z,30.85
2022-11-28T18:15:11.631Z,29.17
2022-11-28T18:17:41.461Z,27.90
2022-11-28T18:20:08.447Z,34.72
2022-11-28T18:22:35.060Z,25.40
2022-11-28T18:25:01.633Z,21.50
2022-11-28T18:27:28.236Z,18.33
2022-11-28T18:29:54.876Z,21.42
2022-11-28T18:32:24.743Z,22.17
2022-11-28T18:34:54.410Z,23.70
2022-11-28T18:37:21.051Z,22.52
2022-11-28T18:39:47.947Z,21.00
2022-11-28T18:42:14.529Z,22.70
2022-11-28T18:44:41.270Z,31.05
2022-11-28T18:47:07.942Z,28.30
2022-11-28T18:49:36.525Z,30.80
2022-11-28T18:52:03.382Z,25.45
2022-11-28T18:54:32.497Z,31.20
2022-11-28T18:57:00.455Z,23.48
2022-11-28T18:59:27.331Z,22.73
2022-11-28T19:01:54.190Z,18.77
2022-11-28T19:04:20.999Z,20.20
2022-11-28T19:06:48.777Z,15.48
2022-11-28T19:09:17.368Z,14.85
2022-11-28T19:11:45.141Z,15.80
2022-11-28T19:14:18.602Z,20.13
2022-11-28T19:16:47.026Z,20.75
2022-11-28T19:19:16.742Z,22.30
2022-11-28T19:21:43.658Z,23.00
2022-11-28T19:24:15.743Z,18.70
2022-11-28T19:26:42.962Z,23.50
2022-11-28T19:29:09.882Z,24.58
2022-11-28T19:31:38.696Z,15.68
2022-11-28T19:34:19.139Z,20.17
2022-11-28T19:36:51.162Z,18.65
2022-11-28T19:39:19.354Z,20.15
2022-11-28T19:41:46.900Z,23.80
2022-11-28T19:44:14.142Z,22.13
2022-11-28T19:46:41.746Z,22.23
2022-11-28T19:49:14.374Z,17.27
2022-11-28T19:51:41.083Z,17.65
2022-11-28T19:54:08.464Z,16.73
2022-11-28T19:56:35.272Z,14.80
2022-11-28T19:59:01.907Z,12.50
2022-11-28T20:01:28.744Z,12.63
2022-11-28T20:03:55.658Z,12.50
2022-11-28T20:06:24.752Z,10.80
2022-11-28T20:08:53.222Z,11.95
2022-11-28T20:11:24.790Z,11.55
2022-11-28T20:14:00.379Z,11.85
2022-11-28T20:16:29.790Z,11.07
2022-11-28T20:18:56.905Z,12.98
2022-11-28T20:21:23.573Z,17.52
2022-11-28T20:23:55.452Z,15.50
2022-11-28T20:26:28.095Z,14.13
2022-11-28T20:28:56.028Z,16.48
2022-11-28T20:31:27.238Z,16.25
2022-11-28T20:33:54.530Z,13.38
2022-11-28T20:36:23.102Z,14.85
2022-11-28T20:38:53.925Z,13.43
2022-11-28T20:41:22.628Z,14.13
2022-11-28T20:43:49.555Z,14.35
2022-11-28T20:46:16.151Z,13.35
2022-11-28T20:48:43.420Z,11.63
2022-11-28T20:51:15.724Z,12.85
2022-11-28T20:53:42.697Z,12.98
2022-11-28T20:56:13.305Z,11.43
2022-11-28T20:58:40.346Z,19.88
2022-11-28T21:01:07.101Z,22.60
2022-11-28T21:03:34.382Z,16.98
2022-11-28T21:06:01.712Z,16.48
2022-11-28T21:08:31.378Z,13.95
2022-11-28T21:10:58.137Z,27.08
2022-11-28T21:13:25.194Z,26.90
2022-11-28T21:15:53.477Z,30.15
2022-11-28T21:18:20.394Z,21.75
2022-11-28T21:20:47.558Z,23.90
2022-11-28T21:23:16.557Z,24.25
2022-11-28T21:25:44.414Z,26.63
2022-11-28T21:28:12.321Z,29.02
2022-11-28T21:30:43.786Z,31.73
2022-11-28T21:33:13.522Z,30.00
2022-11-28T21:35:40.424Z,33.00
2022-11-28T21:38:08.246Z,34.38
2022-11-28T21:40:34.878Z,33.17
2022-11-28T21:43:01.529Z,37.17
2022-11-28T21:45:28.214Z,30.75
2022-11-28T21:47:55.010Z,35.97
2022-11-28T21:50:21.699Z,35.38
2022-11-28T21:52:48.388Z,41.83
2022-11-28T21:55:15.104Z,34.92
2022-11-28T21:57:42.328Z,41.03
2022-11-28T22:00:20.744Z,42.55
2022-11-28T22:03:02.938Z,37.75
2022-11-28T22:05:32.650Z,41.92
2022-11-28T22:07:59.528Z,38.60
2022-11-28T22:10:27.120Z,28.40
2022-11-28T22:12:53.846Z,30.70
2022-11-28T22:15:20.834Z,30.75
2022-11-28T22:17:47.491Z,43.97
2022-11-28T22:20:14.094Z,39.10
2022-11-28T22:22:40.741Z,35.38
2022-11-28T22:25:07.774Z,33.90
2022-11-28T22:27:35.580Z,52.00
2022-11-28T22:30:02.417Z,35.75
2022-11-28T22:32:29.032Z,30.20
2022-11-28T22:34:55.562Z,35.85
2022-11-28T22:37:22.180Z,39.17
2022-11-28T22:39:48.737Z,33.97
2022-11-28T22:42:15.428Z,30.65
2022-11-28T22:44:42.475Z,32.55
2022-11-28T22:47:09.207Z,33.55
2022-11-28T22:49:35.817Z,34.67
2022-11-28T22:52:02.364Z,35.45
2022-11-28T22:54:28.936Z,27.17
2022-11-28T22:56:55.575Z,26.63
2022-11-28T22:59:22.310Z,23.23
2022-11-28T23:01:48.950Z,27.85
2022-11-28T23:04:16.274Z,27.23
2022-11-28T23:06:43.224Z,29.60
2022-11-28T23:09:12.279Z,26.10
2022-11-28T23:11:39.591Z,30.40
2022-11-28T23:14:06.700Z,29.42
2022-11-28T23:16:39.063Z,24.27
2022-11-28T23:19:10.134Z,23.48
2022-11-28T23:21:39.598Z,25.13
2022-11-28T23:24:07.176Z,31.35
2022-11-28T23:26:34.374Z,22.77
2022-11-28T23:29:03.661Z,24.13
2022-11-28T23:31:33.011Z,29.35
2022-11-28T23:34:01.281Z,26.55
2022-11-28T23:36:38.449Z,32.25
2022-11-28T23:39:22.432Z,25.08
2022-11-28T23:41:50.181Z,22.23
2022-11-28T23:44:18.671Z,24.52
2022-11-28T23:46:46.582Z,22.95
2022-11-28T23:49:13.515Z,25.70
2022-11-28T23:51:41.001Z,17.73
2022-11-28T23:54:08.810Z,22.17
2022-11-28T23:56:36.752Z,20.15
2022-11-28T23:59:06.069Z,22.55
